Data for 06/13/2006

Time Sea-Level Adjusted Pressure Absolute Pressure Temperature Relative Humidity Dew Point   
(mb) (inHg) (mb) (inHg) (C) (F) (%) (C) (F)
00:05 1019 30.09 848 25.04 17.7 63.9 76 13.5 56.4
00:10 1019 30.09 848 25.04 17.6 63.6 77 13.5 56.3
00:15 1019 30.09 848 25.04 17.5 63.5 77 13.4 56.2
00:20 1019 30.09 848 25.04 17.4 63.4 77 13.4 56.1
00:25 1019 30.09 848 25.04 17.4 63.3 77 13.4 56.2
00:30 1019 30.09 848 25.04 17.3 63.1 77 13.4 56.1
00:35 1019 30.09 848 25.04 17.3 63.1 78 13.4 56.1
00:40 1019 30.09 848 25.04 17.2 62.9 78 13.4 56
00:45 1019 30.09 848 25.04 17.1 62.7 79 13.5 56.2
00:50 1019 30.09 848 25.04 16.9 62.4 79 13.4 56.1
00:55 1019 30.09 848 25.04 16.8 62.3 80 13.3 56
01:00 1019 30.09 848 25.04 16.7 62.1 80 13.3 56
01:05 1019 30.09 848 25.04 16.7 62 81 13.4 56.1
01:10 1019 30.09 848 25.04 16.7 62 80 13.3 56
01:15 1019 30.09 848 25.04 16.6 61.9 81 13.4 56
01:20 1019 30.09 848 25.04 16.6 61.9 81 13.3 55.9
01:25 1019 30.09 848 25.04 16.6 61.9 81 13.3 56
01:30 1019 30.09 848 25.04 16.6 61.8 81 13.3 55.9
01:35 1019 30.09 848 25.04 16.6 61.9 81 13.4 56
01:40 1019 30.09 848 25.04 16.6 61.8 81 13.3 56
01:45 1019 30.09 848 25.04 16.6 61.8 81 13.3 55.9
01:50 1019 30.09 848 25.04 16.5 61.7 81 13.4 56.1
01:55 1019 30.09 848 25.04 16.5 61.7 81 13.3 56
02:00 1019 30.09 848 25.04 16.5 61.6 82 13.3 56
02:05 1019 30.09 848 25.04 16.5 61.7 82 13.4 56.2
02:10 1019 30.09 848 25.04 16.4 61.6 82 13.3 56
02:15 1019 30.09 848 25.04 16.5 61.7 82 13.4 56.2
02:20 1019 30.09 848 25.04 16.5 61.7 82 13.4 56.2
02:25 1019 30.09 848 25.04 16.5 61.6 82 13.4 56.1
02:30 1019 30.09 848 25.04 16.5 61.7 82 13.5 56.2
02:35 1019 30.09 848 25.04 16.6 61.8 82 13.5 56.3
02:40 1019 30.09 848 25.04 16.5 61.7 82 13.5 56.3
02:45 1019 30.09 848 25.04 16.4 61.6 83 13.5 56.3
02:50 1019 30.09 848 25.04 16.5 61.6 82 13.5 56.3
02:55 1019 30.09 848 25.04 16.4 61.5 83 13.5 56.3
03:00 1019 30.09 848 25.04 16.3 61.4 83 13.5 56.2
03:05 1019 30.09 848 25.04 16.3 61.3 83 13.4 56.2
03:10 1019 30.09 848 25.04 16.3 61.3 83 13.4 56.1
03:15 1019 30.09 848 25.04 16.4 61.4 82 13.4 56.1
03:20 1019 30.09 848 25.04 16.4 61.4 82 13.4 56.1
03:25 1019 30.09 848 25.04 16.4 61.5 83 13.4 56.2
03:30 1019 30.09 848 25.04 16.3 61.3 83 13.4 56.1
03:35 1019 30.09 848 25.04 16.3 61.3 83 13.4 56.1
03:40 1019 30.09 848 25.04 16.2 61.2 83 13.3 56
03:45 1019 30.09 848 25.04 16.1 61 83 13.4 56
03:50 1019 30.09 848 25.04 16.2 61.2 83 13.3 56
03:55 1019 30.09 848 25.04 16.2 61.2 83 13.3 56
04:00 1019 30.09 848 25.04 16.2 61.1 83 13.3 56
04:05 1019 30.09 848 25.04 16.2 61.1 83 13.4 56.1
04:10 1019 30.09 848 25.04 16.2 61.1 83 13.4 56.1
04:15 1019 30.09 848 25.04 16.1 61 83 13.3 55.9
04:20 1019 30.09 848 25.04 16.1 61 83 13.3 55.9
04:25 1019 30.09 848 25.04 16.1 60.9 83 13.3 55.9
04:30 1019 30.09 848 25.04 16 60.8 83 13.2 55.8
04:35 1019 30.09 848 25.04 16.1 61 83 13.2 55.7
04:40 1019 30.09 848 25.04 16.1 61 83 13.2 55.8
04:45 1019 30.09 848 25.04 16 60.8 83 13.1 55.6
04:50 1019 30.09 848 25.04 16 60.8 83 13.1 55.6
04:55 1019 30.09 848 25.04 15.9 60.7 84 13.2 55.8
05:00 1019 30.09 848 25.04 15.8 60.5 84 13.2 55.7
05:05 1019 30.09 848 25.04 15.9 60.6 84 13.1 55.6
05:10 1019 30.09 848 25.04 15.9 60.5 83 13 55.5
05:15 1019 30.09 848 25.04 15.9 60.6 84 13.1 55.6
05:20 1019 30.09 848 25.04 15.9 60.5 83 13.1 55.5
05:25 1019 30.09 848 25.04 15.8 60.4 83 13 55.4
05:30 1019 30.09 848 25.04 15.8 60.5 83 13 55.4
05:35 1019 30.09 848 25.04 15.8 60.4 84 13.1 55.5
05:40 1019 30.09 848 25.04 15.8 60.4 84 13 55.4
05:45 1019 30.09 848 25.04 15.8 60.4 84 13.1 55.5
05:50 1019 30.09 848 25.04 15.7 60.3 85 13.1 55.7
05:55 1019 30.09 849 25.07 15.6 60.1 85 13.1 55.5
06:00 1019 30.09 849 25.07 15.6 60.2 85 13.2 55.7
06:05 1019 30.09 849 25.07 15.6 60.1 85 13.1 55.6
06:10 1019 30.09 849 25.07 15.6 60 85 13.1 55.5
06:15 1019 30.09 849 25.07 15.6 60.2 85 13.2 55.7
06:20 1019 30.09 849 25.07 15.6 60.1 85 13.1 55.6
06:25 1020 30.12 849 25.07 15.5 60 85 13.1 55.6
06:30 1020 30.12 849 25.07 15.5 60 85 13.1 55.6
06:35 1019 30.09 849 25.07 15.6 60 85 13.1 55.6
06:40 1020 30.12 849 25.07 15.6 60 85 13.1 55.6
06:45 1020 30.12 849 25.07 15.6 60.1 85 13.1 55.6
06:50 1020 30.12 849 25.07 15.6 60 86 13.2 55.7
06:55 1020 30.12 849 25.07 15.6 60 86 13.2 55.7
07:00 1020 30.12 849 25.07 15.4 59.7 87 13.2 55.8
07:05 1020 30.12 849 25.07 15.5 59.8 86 13.1 55.6
07:10 1020 30.12 849 25.07 15.5 59.9 85 13 55.5
07:15 1020 30.12 849 25.07 15.6 60.1 84 13 55.3
07:20 1020 30.12 849 25.07 15.8 60.4 83 12.9 55.3
07:25 1020 30.12 849 25.07 16 60.8 83 13.1 55.6
07:30 1020 30.12 849 25.07 16 60.9 83 13.2 55.8
07:35 1020 30.12 849 25.07 16.1 60.9 83 13.3 55.9
07:40 1020 30.12 849 25.07 16 60.8 84 13.4 56.1
07:45 1020 30.12 849 25.07 16 60.8 84 13.3 56
07:50 1020 30.12 849 25.07 16.2 61.2 83 13.3 55.9
07:55 1020 30.12 849 25.07 16.3 61.4 82 13.3 55.9
08:00 1020 30.12 849 25.07 16.5 61.7 80 13 55.5
08:05 1020 30.12 849 25.07 16.6 61.9 80 13.1 55.7
08:10 1020 30.12 849 25.07 16.7 62.1 79 13.1 55.5
08:15 1020 30.12 849 25.07 16.9 62.3 78 13 55.3
08:20 1019 30.09 849 25.07 17 62.5 76 12.7 54.9
08:25 1019 30.09 849 25.07 17.2 62.9 75 12.8 55.1
08:30 1019 30.09 849 25.07 17.2 63 74 12.7 54.8
08:35 1019 30.09 849 25.07 17.3 63.2 74 12.6 54.7
08:40 1019 30.09 849 25.07 17.4 63.3 73 12.5 54.5
08:45 1019 30.09 849 25.07 17.6 63.7 72 12.5 54.5
08:50 1019 30.09 849 25.07 17.6 63.7 71 12.4 54.3
08:55 1019 30.09 849 25.07 17.8 64.1 71 12.6 54.7
09:00 1019 30.09 848 25.04 17.9 64.3 71 12.7 54.9
09:05 1019 30.09 848 25.04 18.1 64.6 70 12.6 54.6
09:10 1019 30.09 848 25.04 18.2 64.8 70 12.7 54.8
09:15 1019 30.09 848 25.04 18.4 65 70 12.8 55
09:20 1019 30.09 848 25.04 18.3 64.9 70 12.8 55.1
09:25 1019 30.09 848 25.04 18.2 64.7 70 12.8 55
09:30 1019 30.09 848 25.04 18.6 65.5 68 12.6 54.6
09:35 1019 30.09 848 25.04 18.6 65.6 69 13 55.4
09:40 1019 30.09 848 25.04 18.7 65.6 69 12.9 55.2
09:45 1019 30.09 848 25.04 18.8 65.9 69 13 55.4
09:50 1019 30.09 848 25.04 19 66.2 68 12.9 55.3
09:55 1019 30.09 848 25.04 19 66.3 68 13 55.4
10:00 1019 30.09 848 25.04 19.1 66.4 66 12.8 55.1
10:05 1019 30.09 848 25.04 19.3 66.7 65 12.7 54.9
10:10 1019 30.09 848 25.04 19.4 67 65 12.7 54.9
10:15 1019 30.09 848 25.04 19.5 67.2 66 13 55.4
10:20 1019 30.09 848 25.04 19.6 67.3 64 12.7 54.8
10:25 1019 30.09 848 25.04 19.6 67.3 65 12.9 55.3
10:30 1019 30.09 848 25.04 19.7 67.4 64 12.9 55.2
10:35 1019 30.09 848 25.04 20.2 68.3 62 12.8 55.1
10:40 1018 30.06 848 25.04 20.3 68.5 62 12.9 55.3
10:45 1019 30.09 848 25.04 20.4 68.8 61 12.8 55.1
10:50 1018 30.06 848 25.04 20.6 69 62 13 55.5
10:55 1018 30.06 848 25.04 20.9 69.6 59 12.8 55
11:00 1018 30.06 848 25.04 21.1 70 59 12.8 55.1
11:05 1018 30.06 847 25.01 21.5 70.7 56 12.5 54.4
11:10 1018 30.06 847 25.01 21.6 70.9 57 12.8 55
11:15 1018 30.06 847 25.01 21.7 71 56 12.7 54.8
11:20 1018 30.06 847 25.01 22 71.6 55 12.6 54.7
11:25 1018 30.06 847 25.01 22.1 71.7 56 13 55.4
11:30 1018 30.06 847 25.01 22.5 72.4 54 12.9 55.3
11:35 1018 30.06 847 25.01 22.7 72.8 53 12.6 54.8
11:40 1018 30.06 847 25.01 22.8 73 51 12.3 54.1
11:45 1018 30.06 847 25.01 23 73.3 52 12.6 54.8
11:50 1018 30.06 847 25.01 23.2 73.8 50 12.4 54.4
11:55 1018 30.06 847 25.01 23.1 73.7 51 12.5 54.5
12:00 1018 30.06 847 25.01 23.2 73.8 48 11.9 53.4
12:05 1018 30.06 847 25.01 23.3 74 49 12.3 54.1
12:10 1018 30.06 847 25.01 23.7 74.7 49 12.6 54.6
12:15 1018 30.06 847 25.01 24.2 75.6 46 12.2 54
12:20 1018 30.06 847 25.01 24.2 75.5 53 14.1 57.4
12:25 1018 30.06 847 25.01 24 75.3 48 12.6 54.6
12:30 1017 30.03 847 25.01 24 75.2 48 12.4 54.2
12:35 1017 30.03 847 25.01 24.2 75.6 46 12.1 53.7
12:40 1017 30.03 846 24.98 24.5 76 46 12.3 54.2
12:45 1017 30.03 846 24.98 24.4 75.9 46 12.3 54.2
12:50 1017 30.03 846 24.98 24.8 76.6 45 12.2 53.9
12:55 1017 30.03 846 24.98 24.7 76.4 45 12.1 53.8
13:00 1017 30.03 846 24.98 24.7 76.4 44 11.7 53.1
13:05 1017 30.03 846 24.98 24.8 76.6 46 12.5 54.5
13:10 1017 30.03 846 24.98 25 77 45 12.5 54.5
13:15 1017 30.03 846 24.98 25.2 77.3 45 12.4 54.4
13:20 1017 30.03 846 24.98 25 76.9 47 13.1 55.6
13:25 1017 30.03 846 24.98 24.8 76.6 48 13.2 55.8
13:30 1017 30.03 846 24.98 24.7 76.5 47 13 55.4
13:35 1017 30.03 846 24.98 24.9 76.8 46 12.7 54.8
13:40 1017 30.03 846 24.98 25 77 47 13 55.4
13:45 1017 30.03 846 24.98 24.7 76.5 48 13 55.4
13:50 1017 30.03 846 24.98 24.7 76.5 48 13 55.5
13:55 1017 30.03 846 24.98 25 76.9 49 13.8 56.9
14:00 1016 30 846 24.98 24.9 76.8 50 14 57.2
14:05 1016 30 846 24.98 25 77 49 13.6 56.5
14:10 1016 30 846 24.98 24.8 76.6 50 13.8 56.8
14:15 1016 30 845 24.95 24.6 76.3 50 13.8 56.8
14:20 1016 30 845 24.95 24.6 76.3 49 13.3 55.9
14:25 1016 30 845 24.95 24.6 76.3 49 13.3 55.9
14:30 1016 30 845 24.95 24.6 76.2 50 13.7 56.6
14:35 1016 30 845 24.95 24.4 76 52 14 57.3
14:40 1016 30 845 24.95 24.3 75.8 50 13.3 56
14:45 1016 30 845 24.95 23.9 75 50 13.1 55.5
14:50 1016 30 845 24.95 24 75.2 53 13.9 57.1
14:55 1016 30 845 24.95 23.9 74.9 55 14.5 58.1
15:00 1016 30 845 24.95 23.5 74.3 55 14.1 57.4
15:05 1016 30 845 24.95 23.5 74.2 55 14 57.2
15:10 1016 30 845 24.95 23.2 73.7 56 13.9 57.1
15:15 1016 30 845 24.95 23.2 73.8 56 14.1 57.4
15:20 1016 30 845 24.95 22.9 73.2 58 14.2 57.6
15:25 1016 30 845 24.95 22.4 72.4 57 13.7 56.7
15:30 1015 29.97 845 24.95 22.2 72 59 14 57.2
15:35 1016 30 845 24.95 22.2 71.9 59 14 57.1
15:40 1015 29.97 845 24.95 22.2 72 61 14.4 58
15:45 1015 29.97 845 24.95 22.3 72.2 58 13.7 56.6
15:50 1015 29.97 845 24.95 22.3 72.2 58 13.8 56.9
15:55 1015 29.97 844 24.92 22.2 71.9 59 14 57.2
16:00 1015 29.97 844 24.92 22.2 71.9 61 14.3 57.7
16:05 1015 29.97 844 24.92 22.1 71.7 60 14.1 57.3
16:10 1015 29.97 844 24.92 22 71.5 61 14.1 57.4
16:15 1015 29.97 844 24.92 22.1 71.8 60 14.1 57.3
16:20 1015 29.97 844 24.92 21.8 71.2 62 14.3 57.8
16:25 1015 29.97 844 24.92 21.6 70.8 62 14.2 57.5
16:30 1015 29.97 844 24.92 21.5 70.6 62 14 57.3
16:35 1015 29.97 844 24.92 21.6 70.9 62 14.1 57.5
16:40 1015 29.97 844 24.92 21.5 70.7 62 14.1 57.3
16:45 1015 29.97 844 24.92 21.6 70.9 62 14.2 57.5
16:50 1015 29.97 844 24.92 21.5 70.6 64 14.5 58
16:55 1015 29.97 844 24.92 21.4 70.4 62 14 57.2
17:00 1015 29.97 844 24.92 21.5 70.6 62 14.1 57.4
17:05 1015 29.97 844 24.92 21.6 70.8 62 14.1 57.3
17:10 1014 29.94 844 24.92 21.5 70.7 63 14.2 57.6
17:15 1014 29.94 844 24.92 21.4 70.6 63 14.2 57.5
17:20 1014 29.94 844 24.92 21.2 70.2 65 14.5 58
17:25 1014 29.94 844 24.92 21.1 70 65 14.3 57.8
17:30 1014 29.94 844 24.92 21 69.8 66 14.5 58.2
17:35 1014 29.94 843 24.89 20.5 68.9 68 14.4 57.9
17:40 1014 29.94 843 24.89 20.2 68.4 68 14.2 57.6
17:45 1014 29.94 844 24.92 20 68 69 14.3 57.8
17:50 1014 29.94 843 24.89 20 68 70 14.4 58
17:55 1014 29.94 843 24.89 20.1 68.1 71 14.6 58.3
18:00 1014 29.94 843 24.89 19.9 67.8 70 14.3 57.8
18:05 1014 29.94 843 24.89 19.9 67.8 71 14.4 58
18:10 1014 29.94 843 24.89 19.8 67.7 70 14.3 57.8
18:15 1014 29.94 843 24.89 19.9 67.9 70 14.4 57.9
18:20 1014 29.94 843 24.89 19.8 67.6 72 14.7 58.4
18:25 1014 29.94 843 24.89 19.4 67 72 14.3 57.8
18:30 1014 29.94 843 24.89 19.6 67.3 72 14.4 57.9
18:35 1014 29.94 843 24.89 19.5 67.1 72 14.3 57.7
18:40 1014 29.94 843 24.89 19.1 66.3 74 14.4 57.8
18:45 1014 29.94 843 24.89 19 66.2 73 14.2 57.5
18:50 1013 29.91 843 24.89 19 66.2 72 14 57.1
18:55 1013 29.91 843 24.89 19 66.1 73 14.1 57.3
19:00 1014 29.94 843 24.89 18.9 65.9 73 14 57.2
19:05 1014 29.94 843 24.89 18.8 65.9 73 13.9 56.9
19:10 1013 29.91 843 24.89 18.9 65.9 72 13.7 56.7
19:15 1014 29.94 843 24.89 18.9 65.9 72 13.8 56.9
19:20 1014 29.94 843 24.89 18.8 65.8 72 13.7 56.6
19:25 1014 29.94 843 24.89 18.7 65.7 71 13.5 56.2
19:30 1014 29.94 843 24.89 18.8 65.8 71 13.5 56.3
19:35 1014 29.94 843 24.89 18.8 65.9 71 13.6 56.5
19:40 1014 29.94 843 24.89 18.8 65.8 71 13.5 56.3
19:45 1014 29.94 843 24.89 18.9 66 70 13.4 56.2
19:50 1014 29.94 843 24.89 18.9 66 71 13.5 56.3
19:55 1014 29.94 843 24.89 18.9 66 71 13.6 56.6
20:00 1014 29.94 843 24.89 18.8 65.9 72 13.8 56.8
20:05 1014 29.94 843 24.89 18.8 65.9 72 13.7 56.6
20:10 1014 29.94 843 24.89 18.8 65.9 72 13.7 56.7
20:15 1014 29.94 844 24.92 18.7 65.7 72 13.7 56.6
20:20 1014 29.94 844 24.92 18.6 65.5 73 13.7 56.6
20:25 1014 29.94 844 24.92 18.6 65.4 72 13.5 56.3
20:30 1014 29.94 843 24.89 18.6 65.5 73 13.7 56.6
20:35 1014 29.94 843 24.89 18.5 65.4 73 13.7 56.7
20:40 1014 29.94 844 24.92 18.4 65.1 75 13.9 57
20:45 1014 29.94 843 24.89 18.3 64.9 75 13.8 56.9
20:50 1014 29.94 844 24.92 18.3 64.9 75 13.8 56.9
20:55 1014 29.94 844 24.92 18.3 64.9 75 13.9 57.1
21:00 1014 29.94 844 24.92 18.2 64.8 76 13.9 57.1
21:05 1014 29.94 844 24.92 18.1 64.6 77 14.1 57.3
21:10 1014 29.94 844 24.92 17.9 64.2 77 13.9 57
21:15 1014 29.94 844 24.92 18 64.3 77 14 57.2
21:20 1014 29.94 844 24.92 17.9 64.1 78 14 57.1
21:25 1014 29.94 844 24.92 18 64.3 78 14.1 57.3
21:30 1015 29.97 844 24.92 17.9 64.2 78 14.1 57.4
21:35 1014 29.94 844 24.92 17.8 64 78 14 57.2
21:40 1015 29.97 844 24.92 17.9 64.1 78 14 57.1
21:45 1015 29.97 844 24.92 18 64.4 78 14.1 57.4
21:50 1015 29.97 844 24.92 18 64.4 77 14 57.3
21:55 1015 29.97 844 24.92 18.1 64.6 77 14.1 57.4
22:00 1015 29.97 844 24.92 18.1 64.7 77 14.1 57.4
22:05 1015 29.97 844 24.92 18.2 64.7 77 14.1 57.3
22:10 1015 29.97 844 24.92 18.2 64.7 77 14.1 57.3
22:15 1015 29.97 844 24.92 18 64.5 78 14.2 57.5
22:20 1015 29.97 844 24.92 18 64.4 78 14.2 57.5
22:25 1015 29.97 844 24.92 17.9 64.3 78 14.2 57.5
22:30 1015 29.97 844 24.92 17.9 64.2 78 14.1 57.3
22:35 1015 29.97 844 24.92 18 64.4 78 14.1 57.4
22:40 1015 29.97 844 24.92 18.2 64.7 77 14 57.3
22:45 1015 29.97 844 24.92 18.2 64.7 77 14.2 57.5
22:50 1015 29.97 844 24.92 18.1 64.7 77 14.1 57.4
22:55 1015 29.97 844 24.92 18.1 64.7 77 14.2 57.5
23:00 1015 29.97 845 24.95 18.2 64.8 77 14.2 57.5
23:05 1016 30 845 24.95 18.2 64.8 77 14.2 57.5
23:10 1016 30 845 24.95 18.2 64.8 77 14.2 57.5
23:15 1016 30 845 24.95 18.2 64.7 77 14.1 57.3
23:20 1016 30 845 24.95 18.2 64.8 76 14.1 57.3
23:25 1016 30 845 24.95 18.2 64.8 77 14.3 57.7
23:30 1016 30 845 24.95 18.1 64.6 78 14.2 57.5
23:35 1016 30 845 24.95 18.1 64.5 78 14.2 57.6
23:40 1015 29.97 845 24.95 17.9 64.3 78 14.1 57.4
23:45 1015 29.97 844 24.92 17.9 64.2 79 14.2 57.5
23:50 1015 29.97 844 24.92 17.8 64.1 79 14.1 57.4
23:55 1015 29.97 844 24.92 17.8 64.1 78 14.1 57.3
24:00 1015 29.97 844 24.92 17.8 64.1 78 14.1 57.3